Terminal Aerodrome Forecast
Issued by NWS

Home | Current Version | Previous Version | Text Only | Print | Product List | Glossary On
Versions: 1 2 3 4 5 6 7 8 9 10 11 12 13 14 15 16 17 18 19 20 21 22 23
000
FTUS44 KSJT 310800 AAA
TAFJCT
TAF AMD
KJCT 310838Z 3109/0106 05010KT P6SM VCSH BKN020
     FM311000 05010KT P6SM SCT150
     FM311500 04010G18KT P6SM SKC
     FM010000 04005KT P6SM SKC=

USA.gov is the U.S. government's official web portal to all federal, state and local government web resources and services.